sensor_id;sensor_type;location;lat;lon;timestamp;temperature;humidity
29007;DHT22;16104;48.642;9.008;2023-07-30T01:00:34;21.40;68.90
29007;DHT22;16104;48.642;9.008;2023-07-30T01:05:30;21.40;68.50
29007;DHT22;16104;48.642;9.008;2023-07-30T01:10:26;21.30;68.50
29007;DHT22;16104;48.642;9.008;2023-07-30T01:15:22;21.30;68.50
29007;DHT22;16104;48.642;9.008;2023-07-30T02:01:01;20.90;68.20
29007;DHT22;16104;48.642;9.008;2023-07-30T02:05:56;20.90;68.10
29007;DHT22;16104;48.642;9.008;2023-07-30T02:10:58;20.90;68.10
29007;DHT22;16104;48.642;9.008;2023-07-30T03:01:42;20.50;69.30
29007;DHT22;16104;48.642;9.008;2023-07-30T03:06:39;20.50;69.50
29007;DHT22;16104;48.642;9.008;2023-07-30T03:11:34;20.50;69.80
29007;DHT22;16104;48.642;9.008;2023-07-30T03:16:30;20.50;70.00
29007;DHT22;16104;48.642;9.008;2023-07-30T03:21:25;20.40;70.20
29007;DHT22;16104;48.642;9.008;2023-07-30T03:26:21;20.40;70.30
29007;DHT22;16104;48.642;9.008;2023-07-30T03:31:16;20.40;70.40
29007;DHT22;16104;48.642;9.008;2023-07-30T03:36:13;20.40;70.40
29007;DHT22;16104;48.642;9.008;2023-07-30T03:41:10;20.50;70.60
29007;DHT22;16104;48.642;9.008;2023-07-30T03:46:06;20.40;70.60
29007;DHT22;16104;48.642;9.008;2023-07-30T03:51:01;20.40;70.70
29007;DHT22;16104;48.642;9.008;2023-07-30T03:55:58;20.50;70.70
29007;DHT22;16104;48.642;9.008;2023-07-30T04:00:53;20.40;70.70
29007;DHT22;16104;48.642;9.008;2023-07-30T04:05:48;20.50;70.80
29007;DHT22;16104;48.642;9.008;2023-07-30T04:10:44;20.50;70.80
29007;DHT22;16104;48.642;9.008;2023-07-30T04:15:40;20.40;70.70
29007;DHT22;16104;48.642;9.008;2023-07-30T04:20:35;20.40;70.70
29007;DHT22;16104;48.642;9.008;2023-07-30T04:25:30;20.50;70.90
29007;DHT22;16104;48.642;9.008;2023-07-30T04:30:26;20.50;70.90
29007;DHT22;16104;48.642;9.008;2023-07-30T04:35:21;20.50;70.80
29007;DHT22;16104;48.642;9.008;2023-07-30T04:40:18;20.50;70.80
29007;DHT22;16104;48.642;9.008;2023-07-30T04:45:13;20.50;70.90
29007;DHT22;16104;48.642;9.008;2023-07-30T04:50:09;20.50;70.70
29007;DHT22;16104;48.642;9.008;2023-07-30T04:55:05;20.50;70.90
29007;DHT22;16104;48.642;9.008;2023-07-30T05:00:00;20.50;70.80
29007;DHT22;16104;48.642;9.008;2023-07-30T05:04:56;20.50;71.00
29007;DHT22;16104;48.642;9.008;2023-07-30T05:09:51;20.50;71.00
29007;DHT22;16104;48.642;9.008;2023-07-30T05:14:47;20.50;71.20
29007;DHT22;16104;48.642;9.008;2023-07-30T05:19:42;20.50;71.00
29007;DHT22;16104;48.642;9.008;2023-07-30T05:24:38;20.50;71.20
29007;DHT22;16104;48.642;9.008;2023-07-30T05:29:33;20.60;71.20
29007;DHT22;16104;48.642;9.008;2023-07-30T05:34:29;20.60;71.20
29007;DHT22;16104;48.642;9.008;2023-07-30T05:39:24;20.60;71.10
29007;DHT22;16104;48.642;9.008;2023-07-30T05:44:21;20.60;71.10
29007;DHT22;16104;48.642;9.008;2023-07-30T05:49:17;20.60;71.00
29007;DHT22;16104;48.642;9.008;2023-07-30T05:54:13;20.60;71.20
29007;DHT22;16104;48.642;9.008;2023-07-30T05:59:08;20.60;71.40
29007;DHT22;16104;48.642;9.008;2023-07-30T06:04:04;20.60;71.50
29007;DHT22;16104;48.642;9.008;2023-07-30T06:08:59;20.60;71.60
29007;DHT22;16104;48.642;9.008;2023-07-30T06:13:55;20.70;71.70
29007;DHT22;16104;48.642;9.008;2023-07-30T06:18:50;20.70;71.60
29007;DHT22;16104;48.642;9.008;2023-07-30T06:23:46;20.80;71.60
29007;DHT22;16104;48.642;9.008;2023-07-30T06:28:41;20.80;71.70
29007;DHT22;16104;48.642;9.008;2023-07-30T06:33:37;20.90;71.80
29007;DHT22;16104;48.642;9.008;2023-07-30T06:38:32;21.00;71.70
29007;DHT22;16104;48.642;9.008;2023-07-30T06:43:28;21.00;71.50
29007;DHT22;16104;48.642;9.008;2023-07-30T06:48:23;21.10;71.70
29007;DHT22;16104;48.642;9.008;2023-07-30T06:53:19;21.20;71.90
29007;DHT22;16104;48.642;9.008;2023-07-30T06:58:14;21.30;71.80
29007;DHT22;16104;48.642;9.008;2023-07-30T07:03:10;21.30;71.20
29007;DHT22;16104;48.642;9.008;2023-07-30T07:08:05;21.40;70.90
29007;DHT22;16104;48.642;9.008;2023-07-30T07:13:01;21.40;70.20
29007;DHT22;16104;48.642;9.008;2023-07-30T07:17:57;21.50;69.90
29007;DHT22;16104;48.642;9.008;2023-07-30T07:22:52;21.40;69.70
29007;DHT22;16104;48.642;9.008;2023-07-30T07:27:48;21.40;69.20
29007;DHT22;16104;48.642;9.008;2023-07-30T07:32:43;21.40;69.30
29007;DHT22;16104;48.642;9.008;2023-07-30T07:37:39;21.30;69.60
29007;DHT22;16104;48.642;9.008;2023-07-30T07:42:34;21.30;69.90
29007;DHT22;16104;48.642;9.008;2023-07-30T07:47:30;21.30;70.00
29007;DHT22;16104;48.642;9.008;2023-07-30T07:52:25;21.30;70.00
29007;DHT22;16104;48.642;9.008;2023-07-30T07:57:21;21.40;70.00
29007;DHT22;16104;48.642;9.008;2023-07-30T08:02:16;21.40;70.00
29007;DHT22;16104;48.642;9.008;2023-07-30T08:07:12;21.50;70.00
29007;DHT22;16104;48.642;9.008;2023-07-30T08:12:08;21.50;70.10
29007;DHT22;16104;48.642;9.008;2023-07-30T08:17:03;21.60;69.90
29007;DHT22;16104;48.642;9.008;2023-07-30T08:22:00;21.70;70.20
29007;DHT22;16104;48.642;9.008;2023-07-30T08:26:55;21.90;70.00
29007;DHT22;16104;48.642;9.008;2023-07-30T08:31:51;22.10;69.60
29007;DHT22;16104;48.642;9.008;2023-07-30T08:36:46;22.30;68.40
29007;DHT22;16104;48.642;9.008;2023-07-30T08:41:42;22.40;67.70
29007;DHT22;16104;48.642;9.008;2023-07-30T08:46:37;22.50;67.70
29007;DHT22;16104;48.642;9.008;2023-07-30T08:51:34;22.70;67.80
29007;DHT22;16104;48.642;9.008;2023-07-30T08:56:31;22.80;66.60
29007;DHT22;16104;48.642;9.008;2023-07-30T09:01:32;22.90;66.30
29007;DHT22;16104;48.642;9.008;2023-07-30T09:06:30;23.10;65.30
29007;DHT22;16104;48.642;9.008;2023-07-30T09:11:26;23.20;65.00
29007;DHT22;16104;48.642;9.008;2023-07-30T09:16:25;23.30;64.00
29007;DHT22;16104;48.642;9.008;2023-07-30T09:21:32;23.40;63.50
29007;DHT22;16104;48.642;9.008;2023-07-30T09:26:27;23.20;62.70
29007;DHT22;16104;48.642;9.008;2023-07-30T09:31:23;23.10;63.00
29007;DHT22;16104;48.642;9.008;2023-07-30T09:36:19;23.00;63.40
29007;DHT22;16104;48.642;9.008;2023-07-30T09:41:14;22.90;62.40
29007;DHT22;16104;48.642;9.008;2023-07-30T09:46:10;22.80;62.70
29007;DHT22;16104;48.642;9.008;2023-07-30T09:51:06;22.60;63.00
29007;DHT22;16104;48.642;9.008;2023-07-30T09:56:05;22.60;62.80
29007;DHT22;16104;48.642;9.008;2023-07-30T10:01:04;22.50;62.90
29007;DHT22;16104;48.642;9.008;2023-07-30T10:06:03;22.50;63.50
29007;DHT22;16104;48.642;9.008;2023-07-30T10:10:59;22.60;63.40
29007;DHT22;16104;48.642;9.008;2023-07-30T10:15:56;22.80;63.70
29007;DHT22;16104;48.642;9.008;2023-07-30T10:20:53;23.00;62.70
29007;DHT22;16104;48.642;9.008;2023-07-30T10:25:50;23.20;62.50
29007;DHT22;16104;48.642;9.008;2023-07-30T10:30:56;23.40;61.00
29007;DHT22;16104;48.642;9.008;2023-07-30T10:35:54;23.50;59.40
29007;DHT22;16104;48.642;9.008;2023-07-30T10:41:00;23.70;59.80
29007;DHT22;16104;48.642;9.008;2023-07-30T10:45:56;23.70;57.70
29007;DHT22;16104;48.642;9.008;2023-07-30T10:50:52;23.90;58.60
29007;DHT22;16104;48.642;9.008;2023-07-30T10:55:47;24.10;57.70
29007;DHT22;16104;48.642;9.008;2023-07-30T11:00:43;24.20;56.10
29007;DHT22;16104;48.642;9.008;2023-07-30T11:05:39;24.40;54.60
29007;DHT22;16104;48.642;9.008;2023-07-30T11:10:54;24.40;54.10
29007;DHT22;16104;48.642;9.008;2023-07-30T11:15:50;24.50;54.10
29007;DHT22;16104;48.642;9.008;2023-07-30T11:20:45;24.60;54.30
29007;DHT22;16104;48.642;9.008;2023-07-30T11:25:45;24.70;54.50
29007;DHT22;16104;48.642;9.008;2023-07-30T11:30:41;24.90;54.20
29007;DHT22;16104;48.642;9.008;2023-07-30T11:35:37;25.10;53.60
29007;DHT22;16104;48.642;9.008;2023-07-30T11:40:32;25.30;52.60
29007;DHT22;16104;48.642;9.008;2023-07-30T11:45:28;25.40;51.30
29007;DHT22;16104;48.642;9.008;2023-07-30T11:50:23;25.50;50.80
29007;DHT22;16104;48.642;9.008;2023-07-30T11:55:19;25.70;51.00
29007;DHT22;16104;48.642;9.008;2023-07-30T12:00:15;25.80;51.00
29007;DHT22;16104;48.642;9.008;2023-07-30T12:05:10;26.10;50.70
29007;DHT22;16104;48.642;9.008;2023-07-30T12:10:11;26.20;50.60
29007;DHT22;16104;48.642;9.008;2023-07-30T12:15:10;26.40;50.30
29007;DHT22;16104;48.642;9.008;2023-07-30T12:20:07;26.70;49.30
29007;DHT22;16104;48.642;9.008;2023-07-30T12:25:02;26.90;48.20
29007;DHT22;16104;48.642;9.008;2023-07-30T12:30:01;27.10;49.40
29007;DHT22;16104;48.642;9.008;2023-07-30T12:34:56;27.20;48.60
29007;DHT22;16104;48.642;9.008;2023-07-30T12:39:52;27.10;47.90
29007;DHT22;16104;48.642;9.008;2023-07-30T12:44:47;27.00;47.70
29007;DHT22;16104;48.642;9.008;2023-07-30T12:49:43;26.80;47.40
29007;DHT22;16104;48.642;9.008;2023-07-30T12:54:38;26.50;47.60
29007;DHT22;16104;48.642;9.008;2023-07-30T12:59:34;26.30;48.50
29007;DHT22;16104;48.642;9.008;2023-07-30T13:04:31;26.20;48.80
29007;DHT22;16104;48.642;9.008;2023-07-30T13:09:28;26.20;48.90
29007;DHT22;16104;48.642;9.008;2023-07-30T13:14:23;26.30;48.40
29007;DHT22;16104;48.642;9.008;2023-07-30T13:19:19;26.40;47.70
29007;DHT22;16104;48.642;9.008;2023-07-30T13:24:14;26.40;47.30
29007;DHT22;16104;48.642;9.008;2023-07-30T13:29:10;26.40;47.00
29007;DHT22;16104;48.642;9.008;2023-07-30T13:34:05;26.30;47.00
29007;DHT22;16104;48.642;9.008;2023-07-30T13:39:01;26.20;47.20
29007;DHT22;16104;48.642;9.008;2023-07-30T13:43:56;26.10;47.00
29007;DHT22;16104;48.642;9.008;2023-07-30T13:48:52;26.20;47.50
29007;DHT22;16104;48.642;9.008;2023-07-30T13:53:47;26.40;46.80
29007;DHT22;16104;48.642;9.008;2023-07-30T13:58:43;26.50;46.60
29007;DHT22;16104;48.642;9.008;2023-07-30T14:03:38;26.70;46.10
29007;DHT22;16104;48.642;9.008;2023-07-30T14:08:34;26.90;46.20
29007;DHT22;16104;48.642;9.008;2023-07-30T14:13:29;27.10;46.10
29007;DHT22;16104;48.642;9.008;2023-07-30T14:18:25;27.30;45.40
29007;DHT22;16104;48.642;9.008;2023-07-30T14:23:21;27.40;44.50
29007;DHT22;16104;48.642;9.008;2023-07-30T14:28:16;27.30;43.90
29007;DHT22;16104;48.642;9.008;2023-07-30T14:33:12;27.30;44.10
29007;DHT22;16104;48.642;9.008;2023-07-30T14:38:07;27.30;44.40
29007;DHT22;16104;48.642;9.008;2023-07-30T14:43:03;27.40;44.10
29007;DHT22;16104;48.642;9.008;2023-07-30T14:47:58;27.50;43.60
29007;DHT22;16104;48.642;9.008;2023-07-30T14:52:54;27.50;43.30
29007;DHT22;16104;48.642;9.008;2023-07-30T14:57:49;27.50;42.70
29007;DHT22;16104;48.642;9.008;2023-07-30T15:02:45;27.50;43.40
29007;DHT22;16104;48.642;9.008;2023-07-30T15:07:40;27.40;42.30
29007;DHT22;16104;48.642;9.008;2023-07-30T15:12:36;27.30;42.30
29007;DHT22;16104;48.642;9.008;2023-07-30T15:17:32;27.20;42.50
29007;DHT22;16104;48.642;9.008;2023-07-30T15:22:27;27.20;42.50
29007;DHT22;16104;48.642;9.008;2023-07-30T15:27:23;27.20;42.00
29007;DHT22;16104;48.642;9.008;2023-07-30T15:32:18;27.10;41.70
29007;DHT22;16104;48.642;9.008;2023-07-30T15:37:14;26.90;40.70
29007;DHT22;16104;48.642;9.008;2023-07-30T15:42:10;26.80;41.10
29007;DHT22;16104;48.642;9.008;2023-07-30T15:47:05;26.70;40.60
29007;DHT22;16104;48.642;9.008;2023-07-30T15:52:01;26.50;40.90
29007;DHT22;16104;48.642;9.008;2023-07-30T15:56:56;26.40;40.10
29007;DHT22;16104;48.642;9.008;2023-07-30T16:01:52;26.30;40.80
29007;DHT22;16104;48.642;9.008;2023-07-30T16:06:47;26.20;40.80
29007;DHT22;16104;48.642;9.008;2023-07-30T16:11:43;26.20;40.70
29007;DHT22;16104;48.642;9.008;2023-07-30T16:16:38;26.30;40.40
29007;DHT22;16104;48.642;9.008;2023-07-30T16:21:36;26.20;39.60
29007;DHT22;16104;48.642;9.008;2023-07-30T16:26:32;26.10;39.40
29007;DHT22;16104;48.642;9.008;2023-07-30T16:31:27;26.00;39.80
29007;DHT22;16104;48.642;9.008;2023-07-30T16:36:23;26.00;39.80
29007;DHT22;16104;48.642;9.008;2023-07-30T16:41:18;25.90;39.70
29007;DHT22;16104;48.642;9.008;2023-07-30T16:46:14;25.80;39.20
29007;DHT22;16104;48.642;9.008;2023-07-30T16:51:10;25.60;39.00
29007;DHT22;16104;48.642;9.008;2023-07-30T16:56:13;25.40;39.30
29007;DHT22;16104;48.642;9.008;2023-07-30T17:01:09;25.30;39.40
29007;DHT22;16104;48.642;9.008;2023-07-30T17:06:05;25.10;40.40
29007;DHT22;16104;48.642;9.008;2023-07-30T17:11:05;25.00;40.60
29007;DHT22;16104;48.642;9.008;2023-07-30T17:16:06;24.90;40.40
29007;DHT22;16104;48.642;9.008;2023-07-30T17:21:02;24.90;41.40
29007;DHT22;16104;48.642;9.008;2023-07-30T17:25:59;25.00;40.60
29007;DHT22;16104;48.642;9.008;2023-07-30T17:30:55;24.90;40.00
29007;DHT22;16104;48.642;9.008;2023-07-30T17:35:51;24.80;39.80
29007;DHT22;16104;48.642;9.008;2023-07-30T17:40:53;24.70;39.50
29007;DHT22;16104;48.642;9.008;2023-07-30T17:45:49;24.60;39.40
29007;DHT22;16104;48.642;9.008;2023-07-30T17:50:44;24.40;39.60
29007;DHT22;16104;48.642;9.008;2023-07-30T17:55:41;24.40;39.80
29007;DHT22;16104;48.642;9.008;2023-07-30T18:00:42;24.20;40.10
29007;DHT22;16104;48.642;9.008;2023-07-30T18:05:43;24.00;40.10
29007;DHT22;16104;48.642;9.008;2023-07-30T18:10:38;23.90;40.70
29007;DHT22;16104;48.642;9.008;2023-07-30T18:15:34;23.70;41.00
29007;DHT22;16104;48.642;9.008;2023-07-30T18:20:30;23.60;41.20
29007;DHT22;16104;48.642;9.008;2023-07-30T18:25:26;23.40;41.50
29007;DHT22;16104;48.642;9.008;2023-07-30T18:30:22;23.30;42.00
29007;DHT22;16104;48.642;9.008;2023-07-30T18:35:17;23.10;42.00
29007;DHT22;16104;48.642;9.008;2023-07-30T18:40:13;23.00;42.20
29007;DHT22;16104;48.642;9.008;2023-07-30T18:45:09;22.90;42.60
29007;DHT22;16104;48.642;9.008;2023-07-30T18:50:05;22.80;42.70
29007;DHT22;16104;48.642;9.008;2023-07-30T18:55:01;22.70;42.90
29007;DHT22;16104;48.642;9.008;2023-07-30T18:59:56;22.60;43.20
29007;DHT22;16104;48.642;9.008;2023-07-30T19:04:52;22.50;43.40
29007;DHT22;16104;48.642;9.008;2023-07-30T19:09:47;22.40;43.70
29007;DHT22;16104;48.642;9.008;2023-07-30T19:14:43;22.30;43.80
29007;DHT22;16104;48.642;9.008;2023-07-30T19:19:38;22.20;44.20
29007;DHT22;16104;48.642;9.008;2023-07-30T19:24:34;22.20;44.40
29007;DHT22;16104;48.642;9.008;2023-07-30T19:29:29;22.10;44.60
29007;DHT22;16104;48.642;9.008;2023-07-30T19:34:25;22.00;44.70
29007;DHT22;16104;48.642;9.008;2023-07-30T19:39:20;21.90;44.90
29007;DHT22;16104;48.642;9.008;2023-07-30T19:44:16;21.90;45.10
29007;DHT22;16104;48.642;9.008;2023-07-30T19:49:11;21.80;45.20
29007;DHT22;16104;48.642;9.008;2023-07-30T19:54:07;21.70;45.40
29007;DHT22;16104;48.642;9.008;2023-07-30T19:59:04;21.70;45.50
29007;DHT22;16104;48.642;9.008;2023-07-30T20:04:00;21.60;45.70
29007;DHT22;16104;48.642;9.008;2023-07-30T20:08:55;21.50;46.00
29007;DHT22;16104;48.642;9.008;2023-07-30T20:13:51;21.50;46.30
29007;DHT22;16104;48.642;9.008;2023-07-30T20:18:46;21.40;46.70
29007;DHT22;16104;48.642;9.008;2023-07-30T20:23:42;21.40;47.10
29007;DHT22;16104;48.642;9.008;2023-07-30T20:28:37;21.20;47.40
29007;DHT22;16104;48.642;9.008;2023-07-30T20:33:33;21.10;47.40
29007;DHT22;16104;48.642;9.008;2023-07-30T20:38:30;21.10;47.70
29007;DHT22;16104;48.642;9.008;2023-07-30T20:43:26;21.00;47.70
29007;DHT22;16104;48.642;9.008;2023-07-30T20:48:22;20.90;47.90
29007;DHT22;16104;48.642;9.008;2023-07-30T20:53:17;20.80;47.90
29007;DHT22;16104;48.642;9.008;2023-07-30T20:58:13;20.80;48.00
29007;DHT22;16104;48.642;9.008;2023-07-30T21:03:08;20.70;48.40
29007;DHT22;16104;48.642;9.008;2023-07-30T21:08:04;20.60;48.60
29007;DHT22;16104;48.642;9.008;2023-07-30T21:12:59;20.50;48.70
29007;DHT22;16104;48.642;9.008;2023-07-30T21:17:55;20.50;48.70
29007;DHT22;16104;48.642;9.008;2023-07-30T21:22:50;20.40;48.80
29007;DHT22;16104;48.642;9.008;2023-07-30T21:27:46;20.30;49.00
29007;DHT22;16104;48.642;9.008;2023-07-30T21:32:42;20.20;49.30
29007;DHT22;16104;48.642;9.008;2023-07-30T21:37:37;20.20;49.50
29007;DHT22;16104;48.642;9.008;2023-07-30T21:42:33;20.10;49.60
29007;DHT22;16104;48.642;9.008;2023-07-30T21:47:29;20.00;49.80
29007;DHT22;16104;48.642;9.008;2023-07-30T21:52:28;19.90;50.10
29007;DHT22;16104;48.642;9.008;2023-07-30T21:57:25;19.90;50.50
29007;DHT22;16104;48.642;9.008;2023-07-30T22:02:21;19.80;50.50
29007;DHT22;16104;48.642;9.008;2023-07-30T22:07:17;19.80;50.80
29007;DHT22;16104;48.642;9.008;2023-07-30T22:12:13;19.70;51.00
29007;DHT22;16104;48.642;9.008;2023-07-30T22:17:08;19.70;51.20
29007;DHT22;16104;48.642;9.008;2023-07-30T22:22:04;19.60;51.50
29007;DHT22;16104;48.642;9.008;2023-07-30T22:26:59;19.60;51.60
29007;DHT22;16104;48.642;9.008;2023-07-30T22:31:55;19.50;51.70
29007;DHT22;16104;48.642;9.008;2023-07-30T22:36:51;19.40;51.50
29007;DHT22;16104;48.642;9.008;2023-07-30T22:41:46;19.30;51.80
29007;DHT22;16104;48.642;9.008;2023-07-30T22:46:42;19.30;52.00
29007;DHT22;16104;48.642;9.008;2023-07-30T22:51:37;19.20;52.00
29007;DHT22;16104;48.642;9.008;2023-07-30T22:56:32;19.10;52.20
29007;DHT22;16104;48.642;9.008;2023-07-30T23:01:28;19.10;52.50
29007;DHT22;16104;48.642;9.008;2023-07-30T23:06:24;19.00;53.40
29007;DHT22;16104;48.642;9.008;2023-07-30T23:11:19;19.00;53.00
29007;DHT22;16104;48.642;9.008;2023-07-30T23:16:15;18.90;53.10
29007;DHT22;16104;48.642;9.008;2023-07-30T23:21:10;18.90;53.20
29007;DHT22;16104;48.642;9.008;2023-07-30T23:26:06;18.80;53.50
29007;DHT22;16104;48.642;9.008;2023-07-30T23:31:01;18.80;53.70
29007;DHT22;16104;48.642;9.008;2023-07-30T23:35:57;18.70;53.90
29007;DHT22;16104;48.642;9.008;2023-07-30T23:40:52;18.70;54.00
29007;DHT22;16104;48.642;9.008;2023-07-30T23:45:48;18.70;54.10
29007;DHT22;16104;48.642;9.008;2023-07-30T23:50:43;18.60;54.30
29007;DHT22;16104;48.642;9.008;2023-07-30T23:55:39;18.60;54.40
